Time;durP1;ratioP1;P1;durP2;ratioP2;P2;SDS_P1;SDS_P2;PMS_P1;PMS_P2;Temp;Humidity;BMP_temperature;BMP_pressure;BME280_temperature;BME280_humidity;BME280_pressure;Samples;Min_cycle;Max_cycle;Signal;HPM_P1;HPM_P2
2022/05/05 00:00:53;;;;;;;12.38;7.50;;;12.30;99.90;;;;;;4968482;28;20026;-72
2022/05/05 00:03:19;;;;;;;12.90;8.55;;;12.30;99.90;;;;;;4957077;28;20078;-71
2022/05/05 00:05:45;;;;;;;11.75;8.07;;;12.30;99.90;;;;;;4969181;28;20476;-72
2022/05/05 00:08:12;;;;;;;11.25;7.57;;;12.20;99.90;;;;;;4953418;28;20035;-72
2022/05/05 00:16:07;;;;;;;9.07;6.97;;;12.20;99.90;;;;;;4963279;28;20094;-74
2022/05/05 00:18:33;;;;;;;9.73;6.80;;;12.20;99.90;;;;;;4963071;28;20476;-72
2022/05/05 00:20:59;;;;;;;7.72;6.22;;;12.20;99.90;;;;;;4965434;28;20031;-72
2022/05/05 00:23:24;;;;;;;7.82;5.72;;;12.20;99.90;;;;;;4959697;28;20030;-72
2022/05/05 00:25:50;;;;;;;10.65;6.72;;;12.20;99.90;;;;;;4965845;28;20030;-73
2022/05/05 00:28:16;;;;;;;11.13;5.90;;;12.20;99.90;;;;;;4964616;28;20546;-72
2022/05/05 00:30:41;;;;;;;8.60;5.82;;;12.20;99.90;;;;;;4968614;28;20027;-73
2022/05/05 00:33:07;;;;;;;7.32;6.05;;;12.20;99.90;;;;;;4950384;28;20027;-72
2022/05/05 00:35:33;;;;;;;8.52;6.57;;;12.20;99.90;;;;;;4962787;28;20034;-72
2022/05/05 00:37:58;;;;;;;7.38;5.80;;;12.10;99.90;;;;;;4967008;28;20526;-72
2022/05/05 00:40:24;;;;;;;10.57;7.18;;;12.10;99.90;;;;;;4966330;28;20107;-72
2022/05/05 00:42:50;;;;;;;7.50;6.07;;;12.10;99.90;;;;;;4971075;28;20039;-71
2022/05/05 00:45:16;;;;;;;10.35;6.50;;;12.10;99.90;;;;;;4971868;28;20050;-72
2022/05/05 00:47:41;;;;;;;8.48;6.05;;;12.10;99.90;;;;;;4970972;28;20129;-73
2022/05/05 00:50:08;;;;;;;9.00;6.35;;;12.10;99.90;;;;;;4967496;28;20046;-72
2022/05/05 00:52:33;;;;;;;8.43;6.22;;;12.00;99.90;;;;;;4966606;28;20038;-72
2022/05/05 00:55:00;;;;;;;8.70;6.28;;;12.10;99.90;;;;;;4968935;28;23154;-71
2022/05/05 00:57:26;;;;;;;9.60;6.47;;;12.10;99.90;;;;;;4969045;28;20031;-72
2022/05/05 00:59:53;;;;;;;8.65;6.28;;;12.00;99.90;;;;;;4952235;28;20039;-72
2022/05/05 01:02:19;;;;;;;7.70;5.85;;;12.00;99.90;;;;;;4948126;28;20059;-71
2022/05/05 01:04:46;;;;;;;8.27;5.78;;;12.00;99.90;;;;;;4970650;28;20070;-71
2022/05/05 01:07:15;;;;;;;12.82;5.80;;;12.00;99.90;;;;;;4974339;28;20050;-71
2022/05/05 01:09:41;;;;;;;17.55;6.72;;;12.00;99.90;;;;;;4948926;28;20023;-71
2022/05/05 01:12:08;;;;;;;8.10;5.75;;;12.00;99.90;;;;;;4972370;28;20093;-72
2022/05/05 01:14:34;;;;;;;7.28;5.75;;;12.00;99.90;;;;;;4954470;28;20030;-69
2022/05/05 01:17:00;;;;;;;7.22;5.47;;;12.00;99.90;;;;;;4960355;28;20515;-69
2022/05/05 01:19:26;;;;;;;6.55;5.13;;;12.00;99.90;;;;;;4962927;28;20065;-70
2022/05/05 01:21:55;;;;;;;9.18;5.93;;;12.00;99.90;;;;;;4953056;28;20455;-70
2022/05/05 01:29:54;;;;;;;6.90;5.15;;;11.90;99.90;;;;;;4966120;28;20030;-71
2022/05/05 01:32:20;;;;;;;7.82;5.82;;;11.90;99.90;;;;;;4969106;28;20503;-71
2022/05/05 01:34:47;;;;;;;7.85;5.75;;;11.90;99.90;;;;;;4966855;28;20045;-71
2022/05/05 01:37:13;;;;;;;7.05;5.90;;;11.90;99.90;;;;;;4951189;28;20038;-70
2022/05/05 01:39:38;;;;;;;9.77;5.32;;;12.00;99.90;;;;;;4968904;28;20520;-71
2022/05/05 01:42:04;;;;;;;7.13;5.22;;;11.90;99.90;;;;;;4966894;28;20538;-70
2022/05/05 01:44:30;;;;;;;7.20;5.22;;;12.00;99.90;;;;;;4968067;28;20023;-70
2022/05/05 01:46:55;;;;;;;7.50;5.47;;;12.00;99.90;;;;;;4964764;28;20526;-70
2022/05/05 01:49:21;;;;;;;8.32;5.63;;;12.00;99.90;;;;;;4951057;28;20229;-70
2022/05/05 01:51:47;;;;;;;7.68;5.43;;;12.00;99.90;;;;;;4952220;28;20031;-71
2022/05/05 01:54:12;;;;;;;6.70;5.22;;;12.00;99.90;;;;;;4968344;28;20481;-70
2022/05/05 01:56:38;;;;;;;7.20;5.50;;;12.00;99.90;;;;;;4951591;28;20053;-71
2022/05/05 01:59:04;;;;;;;8.55;5.47;;;12.00;99.90;;;;;;4950745;28;20031;-71
2022/05/05 02:01:29;;;;;;;6.55;5.32;;;11.90;99.90;;;;;;4966004;28;20066;-71
2022/05/05 02:03:55;;;;;;;7.47;5.03;;;11.90;99.90;;;;;;4966989;28;20034;-70
2022/05/05 02:06:21;;;;;;;9.18;5.50;;;11.90;99.90;;;;;;4968442;28;20031;-71
2022/05/05 02:08:48;;;;;;;11.10;5.68;;;11.90;99.90;;;;;;4965801;28;20043;-71
2022/05/05 02:11:14;;;;;;;8.30;5.75;;;11.90;99.90;;;;;;4947460;28;20030;-70
2022/05/05 02:13:39;;;;;;;8.73;5.28;;;11.90;99.90;;;;;;4948868;28;20460;-71
2022/05/05 02:16:05;;;;;;;8.75;5.15;;;11.90;99.90;;;;;;4963384;28;20039;-70
2022/05/05 02:18:31;;;;;;;7.88;5.13;;;11.90;99.90;;;;;;4966865;28;20042;-70
2022/05/05 02:20:57;;;;;;;5.53;4.88;;;11.90;99.90;;;;;;4966027;28;20038;-70
2022/05/05 02:23:23;;;;;;;8.57;5.80;;;11.90;99.90;;;;;;4965004;28;20088;-70
2022/05/05 02:25:48;;;;;;;7.35;4.75;;;11.90;99.90;;;;;;4964352;28;20389;-71
2022/05/05 02:28:14;;;;;;;8.20;5.43;;;11.90;99.90;;;;;;4965577;28;20027;-70
2022/05/05 02:30:40;;;;;;;6.38;5.18;;;11.90;99.90;;;;;;4967364;28;20031;-71
2022/05/05 02:33:05;;;;;;;6.45;4.97;;;11.90;99.90;;;;;;4963988;28;20061;-71
2022/05/05 02:35:31;;;;;;;7.93;5.20;;;11.80;99.90;;;;;;4965431;28;20023;-71
2022/05/05 02:41:01;;;;;;;7.22;5.07;;;11.70;99.90;;;;;;4906887;29;20029;-71
2022/05/05 02:43:26;;;;;;;7.05;5.40;;;11.70;99.90;;;;;;4955191;28;20673;-71
2022/05/05 02:45:52;;;;;;;7.78;5.03;;;11.60;99.90;;;;;;4967184;28;20035;-71
2022/05/05 02:48:18;;;;;;;9.20;6.20;;;11.50;99.90;;;;;;4946639;28;20039;-71
2022/05/05 02:50:43;;;;;;;12.13;6.53;;;11.50;99.90;;;;;;4966910;28;20015;-71
2022/05/05 02:55:53;;;;;;;;;;;11.40;99.90;;;;;;4967187;28;20053;-71
2022/05/05 02:58:19;;;;;;;9.40;6.40;;;11.30;99.90;;;;;;4967415;28;19934;-71
2022/05/05 03:00:44;;;;;;;9.13;6.57;;;11.30;99.90;;;;;;4966932;28;20026;-71
2022/05/05 03:03:10;;;;;;;9.80;6.43;;;11.30;99.90;;;;;;4948923;28;20464;-71
2022/05/05 03:05:35;;;;;;;9.07;5.50;;;11.20;99.90;;;;;;4962444;28;20027;-71
2022/05/05 03:08:01;;;;;;;7.63;5.72;;;11.20;99.90;;;;;;4964242;28;20035;-71
2022/05/05 03:10:27;;;;;;;9.80;6.07;;;11.20;99.90;;;;;;4965473;28;20031;-71
2022/05/05 03:12:53;;;;;;;7.68;5.28;;;11.20;99.90;;;;;;4965863;28;20055;-71
2022/05/05 03:15:19;;;;;;;8.23;6.03;;;11.20;99.90;;;;;;4964462;28;20073;-71
2022/05/05 03:17:44;;;;;;;8.48;5.78;;;11.20;99.90;;;;;;4967231;28;20031;-71
2022/05/05 03:20:11;;;;;;;8.27;6.05;;;11.20;99.90;;;;;;4948704;28;20026;-71
2022/05/05 03:22:36;;;;;;;7.97;5.80;;;11.10;99.90;;;;;;4963047;28;20035;-71
2022/05/05 03:25:02;;;;;;;6.85;5.38;;;11.10;99.90;;;;;;4966363;28;20486;-71
2022/05/05 03:27:28;;;;;;;8.15;6.55;;;11.10;99.90;;;;;;4966161;28;20038;-71
2022/05/05 03:29:53;;;;;;;8.93;5.32;;;11.10;99.90;;;;;;4950486;28;20019;-71
2022/05/05 03:32:19;;;;;;;8.32;6.35;;;11.10;99.90;;;;;;4965275;28;20026;-71
2022/05/05 03:34:45;;;;;;;10.82;5.75;;;11.20;99.90;;;;;;4962212;28;20472;-71
2022/05/05 03:37:10;;;;;;;8.27;5.75;;;11.20;99.90;;;;;;4966539;28;20592;-71
2022/05/05 03:39:36;;;;;;;9.25;6.63;;;11.20;99.90;;;;;;4962912;28;20049;-71
2022/05/05 03:42:02;;;;;;;8.13;5.75;;;11.20;99.90;;;;;;4960426;28;21581;-71
2022/05/05 03:44:28;;;;;;;9.20;5.40;;;11.20;99.90;;;;;;4948145;28;20145;-71
2022/05/05 03:46:53;;;;;;;9.10;5.53;;;11.20;99.90;;;;;;4964775;28;20035;-71
2022/05/05 03:49:19;;;;;;;8.15;6.05;;;11.20;99.90;;;;;;4958429;28;20046;-71
2022/05/05 03:51:45;;;;;;;7.70;5.65;;;11.20;99.90;;;;;;4965242;28;20042;-72
2022/05/05 03:54:11;;;;;;;7.90;5.28;;;11.20;99.90;;;;;;4966830;28;20061;-71
2022/05/05 03:56:36;;;;;;;7.95;5.82;;;11.20;99.90;;;;;;4950500;28;20030;-72
2022/05/05 03:59:02;;;;;;;6.80;5.45;;;11.20;99.90;;;;;;4958742;28;21039;-70
2022/05/05 04:01:28;;;;;;;6.50;5.78;;;11.20;99.90;;;;;;4964146;28;20030;-71
2022/05/05 04:03:53;;;;;;;9.38;6.05;;;11.20;99.90;;;;;;4939219;28;20043;-71
2022/05/05 04:06:20;;;;;;;9.45;5.50;;;11.20;99.90;;;;;;4948129;28;20038;-71
2022/05/05 04:08:45;;;;;;;7.80;5.88;;;11.20;99.90;;;;;;4959272;28;20023;-71
2022/05/05 04:11:14;;;;;;;8.50;5.93;;;11.30;99.90;;;;;;4956466;28;20106;-71
2022/05/05 04:13:40;;;;;;;7.43;6.13;;;11.30;99.90;;;;;;4960815;28;20067;-70
2022/05/05 04:16:06;;;;;;;8.43;5.53;;;11.30;99.90;;;;;;4959576;28;20077;-70
2022/05/05 04:18:33;;;;;;;10.48;5.65;;;11.30;99.90;;;;;;4958462;28;20023;-71
2022/05/05 04:20:59;;;;;;;9.13;6.10;;;11.30;99.90;;;;;;4960889;28;20031;-70
2022/05/05 04:23:24;;;;;;;8.80;6.32;;;11.30;99.90;;;;;;4961462;28;20037;-71
2022/05/05 04:25:50;;;;;;;9.85;6.75;;;11.30;99.90;;;;;;4961868;28;20126;-71
2022/05/05 04:28:16;;;;;;;10.25;6.65;;;11.40;99.90;;;;;;4943838;28;20400;-71
2022/05/05 04:30:42;;;;;;;10.68;6.93;;;11.40;99.90;;;;;;4963494;28;20814;-72
2022/05/05 04:33:08;;;;;;;8.68;6.38;;;11.40;99.90;;;;;;4961457;28;20018;-71
2022/05/05 04:35:37;;;;;;;9.57;6.22;;;11.40;99.90;;;;;;4948273;28;20599;-71
2022/05/05 04:38:04;;;;;;;10.18;6.72;;;11.40;99.90;;;;;;4965638;28;20078;-71
2022/05/05 04:40:33;;;;;;;9.25;5.95;;;11.50;99.90;;;;;;4965723;28;20039;-71
2022/05/05 04:42:59;;;;;;;7.57;5.93;;;11.50;99.90;;;;;;4949183;28;20039;-71
2022/05/05 04:45:24;;;;;;;9.68;7.03;;;11.60;99.90;;;;;;4963437;28;20082;-71
2022/05/05 04:47:50;;;;;;;10.75;6.18;;;11.70;99.90;;;;;;4947777;28;20023;-71
2022/05/05 04:50:16;;;;;;;10.15;6.28;;;11.70;99.90;;;;;;4965365;28;20019;-71
2022/05/05 04:52:42;;;;;;;10.05;6.93;;;11.70;99.90;;;;;;4946184;28;20031;-71
2022/05/05 04:55:08;;;;;;;10.70;6.65;;;11.80;99.90;;;;;;4964934;28;20108;-71
2022/05/05 04:57:38;;;;;;;14.07;6.70;;;11.90;99.90;;;;;;4957763;28;20023;-72
2022/05/05 05:00:06;;;;;;;8.75;6.45;;;11.90;99.90;;;;;;4946928;28;20420;-71
2022/05/05 05:02:32;;;;;;;9.40;6.65;;;11.90;99.90;;;;;;4956272;28;20106;-71
2022/05/05 05:04:58;;;;;;;10.45;6.38;;;12.00;99.90;;;;;;4963709;28;20435;-71
2022/05/05 05:07:24;;;;;;;10.13;6.25;;;12.10;99.90;;;;;;4961032;28;20018;-70
2022/05/05 05:09:49;;;;;;;9.20;5.90;;;12.20;99.90;;;;;;4957458;28;20031;-70
2022/05/05 05:12:15;;;;;;;9.88;6.13;;;12.30;99.90;;;;;;4963355;28;20015;-71
2022/05/05 05:14:41;;;;;;;9.00;6.35;;;12.40;99.90;;;;;;4959842;28;20097;-71
2022/05/05 05:17:06;;;;;;;9.38;6.85;;;12.40;99.90;;;;;;4957770;28;20070;-65
2022/05/05 05:19:32;;;;;;;8.50;6.53;;;12.60;99.90;;;;;;4959436;28;20042;-67
2022/05/05 05:21:58;;;;;;;12.25;6.90;;;12.70;99.90;;;;;;4967406;28;20027;-72
2022/05/05 05:24:23;;;;;;;8.77;6.55;;;12.80;99.90;;;;;;4965068;28;20035;-72
2022/05/05 05:26:49;;;;;;;9.45;6.45;;;12.90;99.90;;;;;;4966030;28;20023;-71
2022/05/05 05:29:15;;;;;;;7.88;6.20;;;12.90;99.90;;;;;;4962869;28;20027;-71
2022/05/05 05:31:41;;;;;;;11.23;6.68;;;13.00;99.90;;;;;;4961941;28;20054;-71
2022/05/05 05:34:09;;;;;;;13.50;6.15;;;13.00;99.90;;;;;;4947621;28;20031;-71
2022/05/05 05:36:35;;;;;;;8.73;6.13;;;13.00;99.90;;;;;;4947940;28;20054;-71
2022/05/05 05:39:07;;;;;;;9.98;6.68;;;13.00;99.90;;;;;;4967327;28;20031;-71
2022/05/05 05:41:32;;;;;;;12.10;6.97;;;13.00;99.90;;;;;;4962522;28;20034;-71
2022/05/05 05:43:58;;;;;;;9.60;6.00;;;12.90;99.90;;;;;;4952656;28;20341;-71
2022/05/05 05:46:24;;;;;;;9.65;6.35;;;13.00;99.90;;;;;;4966406;28;20435;-71
2022/05/05 05:48:52;;;;;;;9.38;6.90;;;12.90;99.90;;;;;;4963923;28;20092;-71
2022/05/05 05:51:18;;;;;;;10.95;7.18;;;12.90;99.90;;;;;;4964863;28;20026;-71
2022/05/05 05:53:50;;;;;;;10.30;7.00;;;12.90;99.90;;;;;;4962167;28;20035;-71
2022/05/05 05:56:16;;;;;;;12.60;6.65;;;12.90;99.90;;;;;;4961365;28;20126;-71
2022/05/05 05:58:42;;;;;;;12.45;6.90;;;12.90;99.90;;;;;;4957463;28;20031;-70
2022/05/05 06:01:07;;;;;;;11.05;6.78;;;13.00;99.90;;;;;;4961894;28;20062;-71
2022/05/05 06:03:54;;;;;;;12.25;7.20;;;13.00;99.90;;;;;;4967968;28;20082;-71
2022/05/05 06:06:21;;;;;;;13.10;8.52;;;13.10;99.90;;;;;;4960842;28;20756;-72
2022/05/05 06:08:47;;;;;;;12.05;7.93;;;13.30;99.90;;;;;;4964391;28;20042;-72
2022/05/05 06:11:13;;;;;;;12.10;8.68;;;13.30;99.90;;;;;;4965423;28;20042;-72
2022/05/05 06:13:40;;;;;;;10.93;8.63;;;13.40;99.90;;;;;;4967392;28;20109;-72
2022/05/05 06:16:06;;;;;;;14.63;8.88;;;13.50;99.90;;;;;;4962488;28;20464;-71
2022/05/05 06:18:33;;;;;;;10.75;8.23;;;13.60;99.90;;;;;;4964741;28;20065;-71
2022/05/05 06:20:58;;;;;;;10.98;8.20;;;13.60;99.90;;;;;;4955052;28;26591;-73
2022/05/05 06:23:24;;;;;;;11.35;8.07;;;13.70;99.90;;;;;;4960361;28;20043;-71
2022/05/05 06:25:50;;;;;;;9.40;7.93;;;13.70;99.90;;;;;;4958642;28;20069;-71
2022/05/05 06:28:15;;;;;;;10.80;8.43;;;13.80;99.90;;;;;;4956430;28;20023;-72
2022/05/05 06:30:41;;;;;;;11.13;8.07;;;13.80;99.90;;;;;;4958251;28;20034;-72
2022/05/05 06:33:07;;;;;;;11.98;8.52;;;13.70;99.90;;;;;;4941550;28;20509;-71
2022/05/05 06:35:32;;;;;;;10.48;7.70;;;13.70;99.90;;;;;;4960784;28;20035;-72
2022/05/05 06:37:58;;;;;;;14.35;8.20;;;13.70;99.90;;;;;;4946683;28;20518;-71
2022/05/05 06:40:24;;;;;;;10.95;7.75;;;13.70;99.90;;;;;;4946621;28;20093;-71
2022/05/05 06:42:50;;;;;;;12.30;7.85;;;13.60;99.90;;;;;;4963774;28;20034;-71
2022/05/05 06:45:16;;;;;;;10.13;8.30;;;13.60;99.90;;;;;;4963168;28;20039;-71
2022/05/05 06:47:42;;;;;;;10.95;8.77;;;13.60;99.90;;;;;;4961556;28;20035;-71
2022/05/05 06:50:08;;;;;;;10.48;7.85;;;13.60;99.90;;;;;;4961703;28;20033;-70
2022/05/05 06:52:33;;;;;;;11.85;7.50;;;13.60;99.90;;;;;;4962508;28;20030;-71
2022/05/05 06:55:00;;;;;;;9.55;7.65;;;13.60;99.90;;;;;;4964298;28;20022;-71
2022/05/05 06:57:26;;;;;;;9.02;7.50;;;13.70;99.90;;;;;;4947568;28;20022;-72
2022/05/05 06:59:52;;;;;;;11.70;7.80;;;13.70;99.90;;;;;;4951168;28;20035;-71
2022/05/05 07:02:18;;;;;;;8.20;6.78;;;13.70;99.90;;;;;;4964870;28;20031;-70
2022/05/05 07:07:28;;;;;;;12.48;7.57;;;13.80;99.90;;;;;;4958015;28;20193;-72
2022/05/05 07:12:38;;;;;;;10.65;8.27;;;13.90;99.90;;;;;;4962544;28;20054;-71
2022/05/05 07:15:04;;;;;;;12.48;8.95;;;13.90;99.90;;;;;;4955004;28;20459;-70
2022/05/05 07:17:30;;;;;;;11.00;7.90;;;13.90;99.90;;;;;;4957964;28;20055;-71
2022/05/05 07:19:56;;;;;;;8.80;7.55;;;13.90;99.90;;;;;;4961084;28;20025;-70
2022/05/05 07:22:21;;;;;;;10.43;7.93;;;13.90;99.90;;;;;;4961523;28;20387;-70
2022/05/05 07:24:47;;;;;;;12.18;8.00;;;14.00;99.90;;;;;;4963754;28;20030;-70
2022/05/05 07:27:13;;;;;;;10.55;8.13;;;14.00;99.90;;;;;;4922913;28;20051;-71
2022/05/05 07:29:41;;;;;;;9.93;7.75;;;14.00;99.90;;;;;;4957661;28;20109;-71
2022/05/05 07:32:07;;;;;;;11.23;7.70;;;14.10;99.90;;;;;;4965936;28;20031;-71
2022/05/05 07:34:34;;;;;;;10.38;8.07;;;14.10;99.90;;;;;;4959049;28;20042;-71
2022/05/05 07:37:00;;;;;;;13.35;8.40;;;14.10;99.90;;;;;;4956112;28;20114;-70
2022/05/05 07:39:26;;;;;;;11.23;9.05;;;14.20;99.90;;;;;;4964308;28;20046;-71
2022/05/05 07:41:52;;;;;;;10.48;7.90;;;14.20;99.90;;;;;;4953501;28;20023;-71
2022/05/05 07:44:17;;;;;;;11.95;8.48;;;14.20;99.90;;;;;;4939823;28;20057;-71
2022/05/05 07:46:43;;;;;;;10.98;8.70;;;14.20;99.90;;;;;;4966062;28;20035;-71
2022/05/05 07:49:09;;;;;;;10.32;8.32;;;14.10;99.90;;;;;;4964421;28;20134;-71
2022/05/05 07:51:35;;;;;;;12.68;8.13;;;14.20;99.90;;;;;;4964008;28;20093;-72
2022/05/05 07:56:45;;;;;;;;;;;14.20;99.90;;;;;;4959779;28;20074;-71
2022/05/05 07:59:11;;;;;;;16.52;8.35;;;14.30;99.90;;;;;;4960697;28;20671;-72
2022/05/05 08:01:38;;;;;;;12.38;8.02;;;14.20;99.90;;;;;;4944419;28;20515;-72
2022/05/05 08:04:06;;;;;;;10.35;7.97;;;14.20;99.90;;;;;;4955668;28;20033;-72
2022/05/05 08:06:33;;;;;;;12.88;8.25;;;14.10;99.90;;;;;;4953496;28;20396;-71
2022/05/05 08:08:59;;;;;;;13.63;8.95;;;14.00;99.90;;;;;;4954163;28;20038;-72
2022/05/05 08:11:25;;;;;;;11.82;8.13;;;14.00;99.90;;;;;;4955767;28;20372;-71
2022/05/05 08:13:52;;;;;;;12.13;8.85;;;14.00;99.90;;;;;;4960517;28;20034;-72
2022/05/05 08:16:18;;;;;;;10.77;8.02;;;14.00;99.90;;;;;;4960147;28;20034;-71
2022/05/05 08:18:44;;;;;;;12.43;7.82;;;13.90;99.90;;;;;;4966686;28;20492;-71
2022/05/05 08:21:10;;;;;;;12.73;8.45;;;13.90;99.90;;;;;;4945629;28;20035;-72
2022/05/05 08:23:36;;;;;;;10.52;7.82;;;13.80;99.90;;;;;;4957596;28;20028;-72
2022/05/05 08:28:46;;;;;;;;;;;13.80;99.90;;;;;;4960319;28;20600;-72
2022/05/05 08:31:12;;;;;;;10.75;8.00;;;13.90;99.90;;;;;;4946517;28;19918;-72
2022/05/05 08:33:38;;;;;;;14.85;8.20;;;13.90;99.90;;;;;;4960293;28;20031;-72
2022/05/05 08:36:05;;;;;;;12.50;8.13;;;13.90;99.90;;;;;;4961147;28;20038;-72
2022/05/05 08:38:31;;;;;;;13.05;8.20;;;13.80;99.90;;;;;;4953831;28;20461;-72
2022/05/05 08:40:57;;;;;;;14.30;9.10;;;13.80;99.90;;;;;;4958524;28;20046;-72
2022/05/05 08:43:23;;;;;;;11.68;8.10;;;13.90;99.90;;;;;;4942639;28;20034;-71
2022/05/05 08:45:50;;;;;;;11.13;8.70;;;13.90;99.90;;;;;;4953523;28;20031;-67
2022/05/05 08:48:17;;;;;;;12.77;8.75;;;13.90;99.90;;;;;;4963609;28;20119;-71
2022/05/05 08:50:46;;;;;;;12.32;8.55;;;13.90;99.90;;;;;;4958553;28;20049;-72
2022/05/05 18:06:33;;;;;;;37.63;24.38;;;14.60;99.90;;;;;;5051743;28;20393;-74
2022/05/05 18:08:58;;;;;;;43.90;25.52;;;14.60;99.90;;;;;;5035516;28;20043;-72
2022/05/05 18:11:24;;;;;;;43.60;24.90;;;14.50;99.90;;;;;;5033737;28;20090;-71
2022/05/05 18:13:50;;;;;;;41.13;25.15;;;14.50;99.90;;;;;;5027648;28;20033;-73
2022/05/05 18:16:16;;;;;;;43.08;25.75;;;14.40;99.90;;;;;;5032400;28;20053;-74
2022/05/05 18:18:43;;;;;;;39.05;24.88;;;14.40;99.90;;;;;;5032832;28;20069;-72
2022/05/05 18:21:12;;;;;;;39.72;23.95;;;14.30;99.90;;;;;;5033267;28;20029;-72
2022/05/05 18:23:40;;;;;;;34.83;24.25;;;14.30;99.90;;;;;;5034400;28;20060;-71
2022/05/05 18:26:09;;;;;;;34.63;24.35;;;14.30;99.90;;;;;;5030275;28;20021;-71
2022/05/05 18:28:37;;;;;;;36.25;23.75;;;14.20;99.90;;;;;;5032534;28;20018;-74
2022/05/05 18:31:04;;;;;;;36.10;22.00;;;14.20;99.90;;;;;;5027828;28;20040;-70
2022/05/05 18:33:30;;;;;;;33.85;22.58;;;14.20;99.90;;;;;;5029431;28;20030;-70
2022/05/05 18:35:56;;;;;;;34.08;22.20;;;14.20;99.90;;;;;;5038591;28;20036;-70
2022/05/05 18:38:22;;;;;;;32.50;22.73;;;14.20;99.90;;;;;;5032942;28;20025;-74
2022/05/05 18:40:48;;;;;;;34.58;22.75;;;14.20;99.90;;;;;;5032068;28;20026;-70
2022/05/05 18:43:14;;;;;;;32.30;22.80;;;14.10;99.90;;;;;;5034228;28;20120;-71
2022/05/05 18:45:40;;;;;;;30.20;20.63;;;14.10;99.90;;;;;;5033546;28;20810;-72
2022/05/05 18:48:07;;;;;;;31.13;20.73;;;14.00;99.90;;;;;;5028117;28;20045;-72
2022/05/05 18:50:33;;;;;;;32.70;22.15;;;14.00;99.90;;;;;;5031819;28;20038;-72
2022/05/05 18:52:58;;;;;;;32.83;22.67;;;14.00;99.90;;;;;;5026255;28;20449;-71
2022/05/05 18:55:25;;;;;;;36.25;21.85;;;14.00;99.90;;;;;;5028578;28;20128;-73
2022/05/05 18:57:52;;;;;;;33.10;21.08;;;14.00;99.90;;;;;;5033516;28;20021;-73
2022/05/05 19:00:18;;;;;;;31.98;21.42;;;14.00;99.90;;;;;;5035455;28;20030;-74
2022/05/05 19:02:44;;;;;;;35.22;21.27;;;14.00;99.90;;;;;;5026953;28;20398;-73
2022/05/05 19:05:10;;;;;;;32.15;19.90;;;14.00;99.90;;;;;;5029044;28;20061;-71
2022/05/05 19:07:36;;;;;;;35.58;20.48;;;13.90;99.90;;;;;;5031283;28;20035;-71
2022/05/05 19:10:05;;;;;;;31.20;20.15;;;13.90;99.90;;;;;;5031503;28;20025;-73
2022/05/05 19:12:31;;;;;;;34.20;20.58;;;13.90;99.90;;;;;;5031550;28;20453;-73
2022/05/05 19:14:57;;;;;;;30.63;19.23;;;13.90;99.90;;;;;;5034993;28;20057;-73
2022/05/05 19:17:24;;;;;;;26.73;20.05;;;13.90;99.90;;;;;;5020718;28;20021;-73
2022/05/05 19:19:50;;;;;;;35.05;19.80;;;13.80;99.90;;;;;;5024562;28;20029;-72
2022/05/05 19:22:21;;;;;;;31.90;19.23;;;13.80;99.90;;;;;;5014540;28;20061;-72
2022/05/05 19:24:47;;;;;;;29.95;19.85;;;13.70;99.90;;;;;;5015136;28;20021;-72
2022/05/05 19:27:13;;;;;;;31.83;21.00;;;13.70;99.90;;;;;;5020416;28;20048;-72
2022/05/05 19:29:40;;;;;;;28.00;19.10;;;13.70;99.90;;;;;;5017910;28;20105;-72
2022/05/05 19:32:07;;;;;;;36.25;21.42;;;13.70;99.90;;;;;;5021429;28;20017;-74
2022/05/05 19:34:37;;;;;;;34.72;21.80;;;13.60;99.90;;;;;;5020052;28;20029;-74
2022/05/05 19:37:08;;;;;;;31.85;22.15;;;13.50;99.90;;;;;;5012455;28;20036;-74
2022/05/05 19:39:35;;;;;;;33.95;22.92;;;13.40;99.90;;;;;;5018933;28;20489;-75
2022/05/05 19:42:02;;;;;;;36.92;22.90;;;13.30;99.90;;;;;;5029251;28;20049;-74
2022/05/05 19:44:28;;;;;;;40.95;23.15;;;13.30;99.90;;;;;;5025407;28;20026;-73
2022/05/05 19:46:54;;;;;;;41.15;23.60;;;13.20;99.90;;;;;;5015012;28;20116;-74
2022/05/05 19:49:19;;;;;;;34.35;22.02;;;13.20;99.90;;;;;;5024546;28;20101;-73
2022/05/05 19:51:48;;;;;;;38.50;24.15;;;13.20;99.90;;;;;;5028252;28;20026;-74
2022/05/05 19:54:14;;;;;;;40.10;24.23;;;13.20;99.90;;;;;;5025752;28;20143;-73
2022/05/05 20:02:13;;;;;;;37.35;25.35;;;13.20;99.90;;;;;;5023423;28;20037;-73
2022/05/05 20:07:24;;;;;;;38.05;23.52;;;13.30;99.90;;;;;;5016458;28;20118;-75
2022/05/05 20:09:51;;;;;;;31.25;21.13;;;13.30;99.90;;;;;;5022035;28;20116;-74
2022/05/05 20:12:17;;;;;;;37.13;22.35;;;13.30;99.90;;;;;;5020924;28;20037;-75
2022/05/05 20:14:47;;;;;;;31.13;20.52;;;13.30;99.90;;;;;;5020992;28;20049;-74
2022/05/05 20:17:17;;;;;;;33.03;20.85;;;13.30;99.90;;;;;;5028289;28;20084;-73
2022/05/05 20:19:43;;;;;;;32.80;21.17;;;13.30;99.90;;;;;;5027596;28;20489;-74
2022/05/05 20:22:10;;;;;;;30.95;19.77;;;13.30;99.90;;;;;;5017509;28;20535;-74
2022/05/05 20:24:43;;;;;;;31.25;20.35;;;13.30;99.90;;;;;;5020282;28;20029;-74
2022/05/05 20:27:10;;;;;;;28.38;19.13;;;13.30;99.90;;;;;;5018732;28;20037;-73
2022/05/05 20:29:37;;;;;;;31.00;19.88;;;13.30;99.90;;;;;;5020371;28;20065;-74
2022/05/05 20:32:05;;;;;;;32.72;20.42;;;13.30;99.90;;;;;;5016466;28;20028;-74
2022/05/05 20:34:32;;;;;;;30.52;20.30;;;13.30;99.90;;;;;;5025237;28;20037;-73
2022/05/05 20:36:58;;;;;;;33.17;20.23;;;13.30;99.90;;;;;;5016613;28;20030;-72
2022/05/05 20:39:24;;;;;;;28.92;18.58;;;13.30;99.90;;;;;;5025275;28;20029;-72
2022/05/05 20:41:52;;;;;;;33.17;19.52;;;13.30;99.90;;;;;;5015523;28;20076;-72
2022/05/05 20:44:24;;;;;;;30.48;19.63;;;13.30;99.90;;;;;;5018484;28;20034;-72
2022/05/05 20:46:50;;;;;;;30.48;19.90;;;13.20;99.90;;;;;;5019071;28;20056;-72
2022/05/05 20:49:17;;;;;;;33.03;19.42;;;13.30;99.90;;;;;;5031676;28;20029;-72
2022/05/05 20:51:45;;;;;;;33.58;20.38;;;13.20;99.90;;;;;;5033742;28;20525;-72
2022/05/05 20:54:12;;;;;;;31.80;19.38;;;13.20;99.90;;;;;;5014844;28;20071;-72
2022/05/05 20:56:38;;;;;;;30.85;20.52;;;13.20;99.90;;;;;;5027359;28;20028;-72
2022/05/05 20:59:04;;;;;;;34.88;22.48;;;13.30;99.90;;;;;;5022815;28;20033;-73
2022/05/05 21:01:30;;;;;;;32.90;20.25;;;13.20;99.90;;;;;;5024194;28;20018;-72
2022/05/05 21:04:02;;;;;;;33.10;20.10;;;13.30;99.90;;;;;;5029412;28;20489;-72
2022/05/05 21:06:28;;;;;;;32.88;18.52;;;13.20;99.90;;;;;;5020851;28;20026;-72
2022/05/05 21:08:54;;;;;;;30.27;18.92;;;13.20;99.90;;;;;;5025471;28;20029;-72
2022/05/05 21:11:19;;;;;;;30.48;19.13;;;13.20;99.90;;;;;;5021608;28;20025;-73
2022/05/05 21:13:45;;;;;;;33.15;20.13;;;13.20;99.90;;;;;;5020507;28;20061;-72
2022/05/05 21:16:10;;;;;;;29.90;19.15;;;13.20;99.90;;;;;;5028846;28;20057;-74
2022/05/05 21:18:36;;;;;;;31.27;19.58;;;13.20;99.90;;;;;;5021011;28;20037;-72
2022/05/05 21:26:30;;;;;;;30.85;20.08;;;13.30;99.90;;;;;;5021903;28;19943;-74
2022/05/05 21:28:56;;;;;;;32.38;18.17;;;13.30;99.90;;;;;;5023102;28;20025;-75
2022/05/05 21:31:25;;;;;;;32.38;19.80;;;13.30;99.90;;;;;;5016751;28;20985;-73
2022/05/05 21:33:51;;;;;;;30.30;19.05;;;13.20;99.90;;;;;;5018971;28;20022;-74
2022/05/05 21:36:18;;;;;;;31.15;19.73;;;13.30;99.90;;;;;;5024636;28;20080;-73
2022/05/05 21:38:49;;;;;;;30.35;19.80;;;13.30;99.90;;;;;;5020432;28;20025;-73
2022/05/05 21:41:15;;;;;;;30.98;20.25;;;13.30;99.90;;;;;;5016061;28;20040;-74
2022/05/05 21:43:43;;;;;;;36.65;21.42;;;13.20;99.90;;;;;;5018939;28;20482;-73
2022/05/05 21:46:10;;;;;;;34.78;22.80;;;13.20;99.90;;;;;;5015269;28;20386;-73
2022/05/05 21:48:35;;;;;;;33.40;21.38;;;13.20;99.90;;;;;;5028242;28;20026;-73
2022/05/05 21:51:03;;;;;;;32.17;21.70;;;13.30;99.90;;;;;;5020087;28;20022;-74
2022/05/05 21:53:29;;;;;;;36.85;21.50;;;13.20;99.90;;;;;;5014148;28;20069;-75
2022/05/05 21:55:54;;;;;;;34.55;21.70;;;13.20;99.90;;;;;;5018043;28;20490;-74
2022/05/05 21:58:23;;;;;;;37.88;22.60;;;13.20;99.90;;;;;;5012347;28;20101;-73
2022/05/05 22:00:55;;;;;;;35.95;20.23;;;13.10;99.90;;;;;;5014816;28;20022;-73
2022/05/05 22:03:32;;;;;;;35.38;21.27;;;13.10;99.90;;;;;;5020490;28;20029;-73
2022/05/05 22:06:03;;;;;;;34.63;21.45;;;13.10;99.90;;;;;;5017748;28;20514;-74
2022/05/05 22:08:31;;;;;;;34.92;21.63;;;13.10;99.90;;;;;;5013837;28;20122;-73
2022/05/05 22:10:59;;;;;;;32.33;21.75;;;13.10;99.90;;;;;;5020939;28;20060;-72
2022/05/05 22:13:27;;;;;;;33.40;21.38;;;13.10;99.90;;;;;;5017091;28;20041;-73
2022/05/05 22:15:53;;;;;;;37.80;21.77;;;13.10;99.90;;;;;;5035039;28;20045;-73
2022/05/05 22:18:20;;;;;;;32.90;21.88;;;13.10;99.90;;;;;;5030075;28;20029;-73
2022/05/05 22:20:46;;;;;;;34.97;22.58;;;13.00;99.90;;;;;;5027741;28;20278;-73
2022/05/05 22:23:15;;;;;;;36.40;23.33;;;13.00;99.90;;;;;;5023430;28;20037;-72
2022/05/05 22:25:41;;;;;;;34.75;21.80;;;13.00;99.90;;;;;;5023099;28;20496;-72
2022/05/05 22:28:07;;;;;;;34.13;22.25;;;13.00;99.90;;;;;;5025452;28;20533;-72